Viking Queen — WDB9919 — position and weather

sailwx.info

Track history (hours):
 
Tides and Currents Weather Stations Pressure Air Temp Water Temp Dewpoint Dewpoint Depression Visibility Wind Speed Wind Dir Waves Ship Positions

Viking Queen

Owner: American River Transportation Company, St Louis, MO. More information available from US FCC via Universal Licensing System and Coast Guard Vessel Documentation Center.

Last reported at 2016-Dec-07 16:08 UTC. Time now 2016-Dec-09 19:47 UTC.
Position N 32°47' W 091°10'.

; draft 3.2 m.

Type: Towing. MMSI: 366985050.

Date/timePositionNaut miles runAvg speedWind from/ knotsBaromVisibWave heightAir tempDewpointWater temp
2016-Dec-07 16:08N 32°47' W 091°10'5 3.3
2016-Dec-07 14:31N 32°44' W 091°04'4 3.4
2016-Dec-07 13:18N 32°40' W 091°06'4 5.1
2016-Dec-07 12:34N 32°37' W 091°09'3 2.7
2016-Dec-07 11:34N 32°35' W 091°08'3 3.1
2016-Dec-07 10:33N 32°32' W 091°06'6 5.7
2016-Dec-07 09:34N 32°27' W 091°05'5 5.3
2016-Dec-07 08:34N 32°23' W 090°60'3 2.9
2016-Dec-07 07:33N 32°21' W 090°58'3 3.4
2016-Dec-07 06:34N 32°20' W 090°54'6 5.9
2016-Dec-07 05:33N 32°15' W 090°58'2 2.4
2016-Dec-07 04:34N 32°13' W 090°59'6 5.8
2016-Dec-07 03:33N 32°08' W 091°01'5 4.7
2016-Dec-07 02:33N 32°07' W 091°06'5 5.3
2016-Dec-07 01:34N 32°02' W 091°04'126 2.8
2016-Dec-05 04:33N 29°60' W 090°26'6 5.4
2016-Dec-05 03:23N 29°56' W 090°20'3 3.6
2016-Dec-05 02:33N 29°58' W 090°17'0 0.0
2016-Dec-05 01:34N 29°58' W 090°17'0 0.0
2016-Dec-05 00:33N 29°58' W 090°17'0 0.0
2016-Dec-04 23:34N 29°58' W 090°17'0 0.0
2016-Dec-04 22:34N 29°58' W 090°17'0 0.0
2016-Dec-04 21:33N 29°58' W 090°17'0 0.0
2016-Dec-04 20:34N 29°58' W 090°17'0 0.0
2016-Dec-04 19:34N 29°58' W 090°17'128 3.3
2016-Dec-03 04:20N 31°58' W 091°11'6 8.0
2016-Dec-03 03:33N 32°00' W 091°05'7 7.2
2016-Dec-03 02:34N 32°07' W 091°07'5 5.3
2016-Dec-03 01:33N 32°08' W 091°00'9 9.3
2016-Dec-03 00:34N 32°17' W 090°57'4 3.9
2016-Dec-02 23:34N 32°21' W 090°57'5 5.3
2016-Dec-02 22:33N 32°25' W 091°00'8 7.4
2016-Dec-02 21:31N 32°31' W 091°07'  
Track history (hours):
 
Tides and Currents Weather Stations Pressure Air Temp Water Temp Dewpoint Dewpoint Depression Visibility Wind Speed Wind Dir Waves Ship Positions

Viking Queen

Owner: American River Transportation Company, St Louis, MO. More information available from US FCC via Universal Licensing System and Coast Guard Vessel Documentation Center.

Last reported at 2016-Dec-07 16:08 UTC. Time now 2016-Dec-09 19:47 UTC.
Position N 32°47' W 091°10'.

; draft 3.2 m.

Type: Towing. MMSI: 366985050.

Date/timePositionNaut miles runAvg speedWind from/ knotsBaromVisibWave heightAir tempDewpointWater temp
2016-Dec-07 16:08N 32°47' W 091°10'5 3.3
2016-Dec-07 14:31N 32°44' W 091°04'4 3.4
2016-Dec-07 13:18N 32°40' W 091°06'4 5.1
2016-Dec-07 12:34N 32°37' W 091°09'3 2.7
2016-Dec-07 11:34N 32°35' W 091°08'3 3.1
2016-Dec-07 10:33N 32°32' W 091°06'6 5.7
2016-Dec-07 09:34N 32°27' W 091°05'5 5.3
2016-Dec-07 08:34N 32°23' W 090°60'3 2.9
2016-Dec-07 07:33N 32°21' W 090°58'3 3.4
2016-Dec-07 06:34N 32°20' W 090°54'6 5.9
2016-Dec-07 05:33N 32°15' W 090°58'2 2.4
2016-Dec-07 04:34N 32°13' W 090°59'6 5.8
2016-Dec-07 03:33N 32°08' W 091°01'5 4.7
2016-Dec-07 02:33N 32°07' W 091°06'5 5.3
2016-Dec-07 01:34N 32°02' W 091°04'126 2.8
2016-Dec-05 04:33N 29°60' W 090°26'6 5.4
2016-Dec-05 03:23N 29°56' W 090°20'3 3.6
2016-Dec-05 02:33N 29°58' W 090°17'0 0.0
2016-Dec-05 01:34N 29°58' W 090°17'0 0.0
2016-Dec-05 00:33N 29°58' W 090°17'0 0.0
2016-Dec-04 23:34N 29°58' W 090°17'0 0.0
2016-Dec-04 22:34N 29°58' W 090°17'0 0.0
2016-Dec-04 21:33N 29°58' W 090°17'0 0.0
2016-Dec-04 20:34N 29°58' W 090°17'0 0.0
2016-Dec-04 19:34N 29°58' W 090°17'128 3.3
2016-Dec-03 04:20N 31°58' W 091°11'6 8.0
2016-Dec-03 03:33N 32°00' W 091°05'7 7.2
2016-Dec-03 02:34N 32°07' W 091°07'5 5.3
2016-Dec-03 01:33N 32°08' W 091°00'9 9.3
2016-Dec-03 00:34N 32°17' W 090°57'4 3.9
2016-Dec-02 23:34N 32°21' W 090°57'5 5.3
2016-Dec-02 22:33N 32°25' W 091°00'8 7.4
2016-Dec-02 21:31N 32°31' W 091°07'  

Dump ship's entire track history